Time;durP1;ratioP1;P1;durP2;ratioP2;P2;SDS_P1;SDS_P2;PMS_P1;PMS_P2;Temp;Humidity;BMP_temperature;BMP_pressure;BME280_temperature;BME280_humidity;BME280_pressure;Samples;Min_cycle;Max_cycle;Signal;HPM_P1;HPM_P2
2021/11/12 00:13:09;;;;;;;33.20;14.15;;;;;;;7.59;100.00;101427.88;5180887;28;20045;-81
2021/11/12 00:15:48;;;;;;;28.70;13.85;;;;;;;7.61;100.00;101426.09;5175456;28;20021;-81
2021/11/12 00:18:22;;;;;;;26.25;13.07;;;;;;;7.64;100.00;101427.78;5173671;28;20395;-81
2021/11/12 00:20:53;;;;;;;29.35;13.60;;;;;;;7.64;100.00;101433.88;5174983;28;20029;-81
2021/11/12 00:23:24;;;;;;;29.80;14.85;;;;;;;7.61;100.00;101423.50;5175028;28;20022;-80
2021/11/12 00:25:55;;;;;;;30.80;13.75;;;;;;;7.61;100.00;101422.63;5173118;28;20021;-81
2021/11/12 00:28:31;;;;;;;27.92;14.18;;;;;;;7.65;100.00;101419.13;5180140;28;20112;-81
2021/11/12 00:31:11;;;;;;;30.92;14.07;;;;;;;7.67;100.00;101426.03;5173817;28;20030;-81
2021/11/12 00:34:06;;;;;;;30.05;14.88;;;;;;;7.64;100.00;101418.28;5171378;28;20113;-81
2021/11/12 00:37:01;;;;;;;28.73;14.52;;;;;;;7.65;100.00;101417.38;5168126;28;20061;-81
2021/11/12 00:39:50;;;;;;;30.15;14.32;;;;;;;7.63;100.00;101426.06;5170525;28;20022;-81
2021/11/12 00:42:25;;;;;;;29.65;14.93;;;;;;;7.67;100.00;101417.38;5177204;28;20480;-81
2021/11/12 00:47:53;;;;;;;33.75;16.50;;;;;;;7.69;100.00;101424.28;5171531;28;20450;-81
2021/11/12 00:55:20;;;;;;;33.38;16.58;;;;;;;7.73;100.00;101428.56;5176823;28;20093;-81
2021/11/12 00:57:53;;;;;;;33.97;17.10;;;;;;;7.71;100.00;101430.31;5179006;28;20026;-81
2021/11/12 01:00:25;;;;;;;33.35;15.57;;;;;;;7.72;100.00;101437.25;5171352;28;20111;-81
2021/11/12 01:02:56;;;;;;;35.40;16.73;;;;;;;7.73;100.00;101431.16;5168212;28;20639;-81
2021/11/12 01:05:27;;;;;;;30.65;15.48;;;;;;;7.73;100.00;101435.53;5174120;28;20022;-81
2021/11/12 01:08:00;;;;;;;33.08;16.38;;;;;;;7.74;100.00;101439.84;5167828;28;20054;-81
2021/11/12 01:10:30;;;;;;;33.20;15.30;;;;;;;7.68;100.00;101438.16;5167900;28;20038;-81
2021/11/12 01:13:00;;;;;;;34.20;16.23;;;;;;;7.69;100.00;101426.88;5176085;28;20034;-81
2021/11/12 01:15:31;;;;;;;33.03;15.60;;;;;;;7.74;100.00;101429.44;5170982;28;20030;-81
2021/11/12 01:18:02;;;;;;;32.22;15.07;;;;;;;7.70;100.00;101431.19;5177393;28;20033;-81
2021/11/12 01:20:41;;;;;;;29.13;14.77;;;;;;;7.68;100.00;101424.31;5173201;28;20026;-81
2021/11/12 01:23:11;;;;;;;30.67;14.73;;;;;;;7.70;100.00;101425.16;5164625;28;20030;-81
2021/11/12 01:25:42;;;;;;;31.85;14.57;;;;;;;7.65;100.00;101422.59;5172567;28;20656;-81
2021/11/12 01:28:13;;;;;;;33.88;15.07;;;;;;;7.67;100.00;101420.84;5175746;28;20037;-81
2021/11/12 01:30:43;;;;;;;29.58;13.35;;;;;;;7.70;100.00;101418.19;5166246;28;20026;-81
2021/11/12 01:33:14;;;;;;;31.38;15.10;;;;;;;7.69;100.00;101415.63;5164081;28;20019;-81
2021/11/12 01:35:44;;;;;;;35.03;15.48;;;;;;;7.64;100.00;101414.78;5166173;28;20050;-81
2021/11/12 01:38:16;;;;;;;33.03;15.73;;;;;;;7.64;100.00;101412.19;5167597;28;20034;-80
2021/11/12 01:40:47;;;;;;;29.08;14.68;;;;;;;7.60;100.00;101400.09;5162620;28;20748;-81
2021/11/12 01:43:21;;;;;;;35.40;15.95;;;;;;;7.56;100.00;101403.63;5174920;28;20032;-81
2021/11/12 01:49:10;;;;;;;33.50;14.98;;;;;;;7.51;100.00;101402.81;5172043;28;20135;-81
2021/11/12 01:51:45;;;;;;;37.45;16.15;;;;;;;7.58;100.00;101402.75;5173879;28;20036;-81
2021/11/12 01:59:23;;;;;;;35.45;15.93;;;;;;;7.65;100.00;101400.91;5186894;28;20049;-81
2021/11/12 02:01:58;;;;;;;41.63;15.88;;;;;;;7.61;100.00;101400.09;5182495;28;20550;-81
2021/11/12 02:04:30;;;;;;;36.90;16.10;;;;;;;7.60;100.00;101400.09;5176221;28;20033;-81
2021/11/12 02:07:01;;;;;;;40.53;15.90;;;;;;;7.60;100.00;101402.69;5182593;28;20041;-81
2021/11/12 02:09:31;;;;;;;42.22;15.93;;;;;;;7.56;100.00;101398.41;5180997;28;20602;-81
2021/11/12 02:12:31;;;;;;;41.10;16.25;;;;;;;7.55;100.00;101399.28;5186608;28;20076;-81
2021/11/12 02:14:58;;;;;;;41.03;17.10;;;;;;;7.47;100.00;101391.56;5192325;28;20064;-81
2021/11/12 02:17:32;;;;;;;47.15;16.10;;;;;;;7.53;100.00;101393.25;5182219;28;20034;-81
2021/11/12 02:20:12;;;;;;;42.70;16.83;;;;;;;7.56;100.00;101390.63;5180769;28;20101;-81
2021/11/12 02:22:45;;;;;;;42.55;16.67;;;;;;;7.53;100.00;101388.06;5182673;28;20078;-81
2021/11/12 02:25:25;;;;;;;47.42;18.40;;;;;;;7.51;100.00;101385.44;5179576;28;20472;-81
2021/11/12 02:30:30;;;;;;;43.35;16.73;;;;;;;7.49;100.00;101384.59;5180607;28;20061;-81
2021/11/12 02:33:11;;;;;;;45.15;17.50;;;;;;;7.49;100.00;101382.00;5181109;28;20030;-80
2021/11/12 02:35:58;;;;;;;47.30;17.33;;;;;;;7.49;100.00;101384.59;5178603;28;20113;-81
2021/11/12 02:38:30;;;;;;;43.25;18.02;;;;;;;7.51;100.00;101384.59;5180472;28;20080;-80
2021/11/12 02:41:01;;;;;;;43.90;16.95;;;;;;;7.49;100.00;101387.22;5176531;28;20030;-81
2021/11/12 02:43:32;;;;;;;44.97;16.77;;;;;;;7.54;100.00;101380.22;5187464;28;20585;-80
2021/11/12 02:46:07;;;;;;;46.53;18.13;;;;;;;7.50;100.00;101373.31;5183589;28;20036;-81
2021/11/12 02:48:40;;;;;;;47.37;17.17;;;;;;;7.54;100.00;101372.41;5171355;28;20105;-80
2021/11/12 02:51:15;;;;;;;43.53;17.85;;;;;;;7.53;100.00;101373.28;5180025;28;20022;-80
2021/11/12 02:53:47;;;;;;;45.75;17.88;;;;;;;7.47;100.00;101368.16;5175209;28;20037;-80
2021/11/12 02:56:28;;;;;;;49.28;18.30;;;;;;;7.59;100.00;101373.25;5180793;28;20674;-80
2021/11/12 02:59:04;;;;;;;47.40;18.17;;;;;;;7.58;100.00;101366.31;5176722;28;20476;-80
2021/11/12 03:01:38;;;;;;;43.22;17.38;;;;;;;7.65;100.00;101360.16;5176037;28;20661;-80
2021/11/12 03:04:09;;;;;;;41.25;17.30;;;;;;;7.59;100.00;101352.44;5179854;28;20057;-81
2021/11/12 03:06:40;;;;;;;45.88;17.92;;;;;;;7.54;100.00;101354.19;5179735;28;20029;-80
2021/11/12 03:09:11;;;;;;;44.15;17.77;;;;;;;7.53;100.00;101349.88;5177944;28;20026;-80
2021/11/12 03:11:43;;;;;;;42.38;17.70;;;;;;;7.53;100.00;101352.47;5178755;28;20547;-80
2021/11/12 03:14:14;;;;;;;48.20;18.25;;;;;;;7.48;100.00;101346.47;5185052;28;20022;-80
2021/11/12 03:16:45;;;;;;;43.60;17.40;;;;;;;7.60;100.00;101348.94;5173935;28;20028;-81
2021/11/12 03:19:17;;;;;;;43.85;18.73;;;;;;;7.50;100.00;101342.13;5180273;28;20109;-81
2021/11/12 03:21:48;;;;;;;42.10;18.08;;;;;;;7.54;100.00;101349.00;5177629;28;20708;-80
2021/11/12 03:24:27;;;;;;;44.97;18.08;;;;;;;7.52;100.00;101340.34;5178838;28;20089;-81
2021/11/12 04:02:46;;;;;;;46.55;16.60;;;;;;;7.56;100.00;101336.00;5180508;28;20566;-80
2021/11/12 04:22:02;;;;;;;42.58;16.25;;;;;;;7.59;100.00;101318.63;5185902;28;20076;-81
2021/11/12 05:50:13;;;;;;;35.83;12.85;;;;;;;7.90;100.00;101280.91;5173871;28;20446;-80
2021/11/12 05:55:33;;;;;;;35.88;13.30;;;;;;;7.70;100.00;101271.66;5174178;28;20108;-80
2021/11/12 05:58:03;;;;;;;39.65;13.65;;;;;;;7.71;100.00;101276.81;5170197;28;20022;-80
2021/11/12 06:00:33;;;;;;;37.63;13.68;;;;;;;7.74;100.00;101276.78;5168171;28;20037;-80
2021/11/12 06:03:04;;;;;;;39.88;13.80;;;;;;;7.69;100.00;101278.59;5170738;28;20083;-80
2021/11/12 06:05:34;;;;;;;38.20;14.75;;;;;;;7.67;100.00;101271.72;5175584;28;20049;-80
2021/11/12 06:08:05;;;;;;;37.55;12.90;;;;;;;7.77;100.00;101271.56;5175863;28;20109;-80
2021/11/12 06:10:35;;;;;;;41.92;14.68;;;;;;;7.86;100.00;101265.38;5175392;28;20053;-81
2021/11/12 06:13:05;;;;;;;40.53;14.45;;;;;;;7.75;100.00;101269.84;5181493;28;20053;-80
2021/11/12 06:15:36;;;;;;;43.47;14.85;;;;;;;7.74;100.00;101262.94;5176491;28;20109;-80
2021/11/12 06:18:06;;;;;;;38.30;14.30;;;;;;;7.79;100.00;101262.00;5169185;28;20054;-80
2021/11/12 06:20:37;;;;;;;39.45;14.23;;;;;;;7.82;100.00;101261.06;5175652;28;20026;-80
2021/11/12 06:23:07;;;;;;;40.40;14.07;;;;;;;7.86;100.00;101253.22;5179212;28;20038;-80
2021/11/12 06:25:37;;;;;;;39.55;14.65;;;;;;;7.88;100.00;101256.66;5176191;28;20026;-81
2021/11/12 06:28:07;;;;;;;38.08;13.07;;;;;;;7.78;100.00;101255.06;5178280;28;20117;-80
2021/11/12 06:30:38;;;;;;;37.95;13.35;;;;;;;7.73;100.00;101254.25;5185836;28;20036;-81
2021/11/12 06:33:08;;;;;;;35.85;13.00;;;;;;;7.76;100.00;101253.34;5166551;28;20026;-81
2021/11/12 06:35:39;;;;;;;40.75;14.15;;;;;;;7.69;100.00;101249.97;5183649;28;20026;-81
2021/11/12 06:38:12;;;;;;;32.88;12.98;;;;;;;7.72;100.00;101244.72;5167989;28;20027;-81
2021/11/12 06:40:42;;;;;;;34.70;13.40;;;;;;;7.74;100.00;101248.16;5159268;28;20051;-80
2021/11/12 06:51:34;;;;;;;34.85;11.90;;;;;;;7.69;100.00;101236.97;5164701;28;20540;-82
2021/11/12 06:54:04;;;;;;;35.17;12.27;;;;;;;7.68;100.00;101239.59;5178612;28;20025;-81
2021/11/12 06:56:34;;;;;;;34.72;11.85;;;;;;;7.67;100.00;101240.50;5180157;28;20034;-82
2021/11/12 06:59:05;;;;;;;36.40;12.18;;;;;;;7.69;100.00;101234.38;5177342;28;20019;-81
2021/11/12 07:01:35;;;;;;;31.13;11.50;;;;;;;7.73;100.00;101230.84;5173740;28;20037;-81
2021/11/12 07:04:06;;;;;;;27.23;10.00;;;;;;;7.77;100.00;101224.72;5189429;28;20038;-81
2021/11/12 07:06:36;;;;;;;22.73;9.63;;;;;;;7.82;100.00;101214.22;5190978;28;20028;-81
2021/11/12 07:09:07;;;;;;;25.27;9.70;;;;;;;7.88;100.00;101227.19;5175607;28;20196;-80
2021/11/12 07:11:38;;;;;;;20.83;8.40;;;;;;;7.95;100.00;101221.88;5180377;28;20028;-81
2021/11/12 07:14:08;;;;;;;19.83;8.73;;;;;;;8.00;100.00;101216.56;5181020;28;20034;-82
2021/11/12 07:16:39;;;;;;;17.00;8.20;;;;;;;7.96;100.00;101215.78;5173750;28;20396;-81
2021/11/12 07:19:09;;;;;;;17.48;7.50;;;;;;;8.00;100.00;101213.97;5180704;28;20030;-81
2021/11/12 07:21:39;;;;;;;17.02;7.53;;;;;;;8.07;100.00;101211.25;5172536;28;20547;-81
2021/11/12 07:24:10;;;;;;;14.45;6.75;;;;;;;8.19;100.00;101212.88;5180107;28;20034;-81
2021/11/12 07:26:41;;;;;;;13.65;6.43;;;;;;;8.28;100.00;101213.56;5178949;28;20030;-81
2021/11/12 07:29:11;;;;;;;16.75;7.00;;;;;;;8.31;100.00;101202.22;5178794;28;20026;-82
2021/11/12 07:31:42;;;;;;;15.80;7.45;;;;;;;8.22;100.00;101202.41;5167702;28;20057;-81
2021/11/12 07:34:13;;;;;;;13.13;6.43;;;;;;;8.38;100.00;101202.09;5171652;28;20037;-81
2021/11/12 07:36:50;;;;;;;17.75;7.43;;;;;;;8.42;100.00;101192.50;5177284;28;20033;-81
2021/11/12 07:40:05;;;;;;;14.15;6.95;;;;;;;8.37;100.00;101195.19;5171379;28;20043;-81
2021/11/12 07:47:32;;;;;;;13.52;6.40;;;;;;;8.21;100.00;101187.66;5186896;28;20026;-81
2021/11/12 07:50:07;;;;;;;12.13;6.63;;;;;;;8.10;100.00;101189.53;5166480;28;20082;-82
2021/11/12 07:52:38;;;;;;;13.02;6.50;;;;;;;8.14;100.00;101181.66;5179974;28;20034;-81
2021/11/12 07:55:09;;;;;;;15.50;6.97;;;;;;;8.17;100.00;101196.34;5173230;28;20552;-82
2021/11/12 07:57:40;;;;;;;16.00;7.80;;;;;;;8.22;100.00;101184.16;5183029;28;20400;-82
2021/11/12 08:00:10;;;;;;;13.80;7.05;;;;;;;8.15;100.00;101188.59;5187273;28;20032;-81
2021/11/12 08:02:41;;;;;;;13.50;7.13;;;;;;;8.20;100.00;101181.56;5184119;28;20231;-82
2021/11/12 08:05:20;;;;;;;13.85;6.97;;;;;;;8.25;100.00;101176.31;5181206;28;20026;-81
2021/11/12 08:07:54;;;;;;;13.20;6.55;;;;;;;8.23;100.00;101168.50;5172547;28;20026;-81
2021/11/12 08:10:28;;;;;;;16.85;7.50;;;;;;;8.25;100.00;101169.34;5181291;28;20033;-82
2021/11/12 08:13:23;;;;;;;17.48;7.45;;;;;;;8.34;100.00;101161.38;5184641;28;20022;-81
2021/11/12 08:18:42;;;;;;;9.93;5.68;;;;;;;8.40;100.00;101169.06;5164891;28;20105;-81
2021/11/12 08:21:17;;;;;;;8.23;4.50;;;;;;;8.28;100.00;101166.72;5173340;28;20118;-82
2021/11/12 08:23:56;;;;;;;10.50;4.82;;;;;;;8.39;100.00;101177.78;5175444;28;20033;-81
2021/11/12 08:27:25;;;;;;;7.85;4.88;;;;;;;8.38;100.00;101167.41;5191473;23;20050;-77
2021/11/12 08:29:39;;;;;;;6.50;3.90;;;;;;;8.39;100.00;101156.94;5179445;28;20069;-77
2021/11/12 08:34:55;;;;;;;6.72;4.22;;;;;;;8.45;100.00;101151.66;5191971;28;20049;-76
2021/11/12 08:42:43;;;;;;;5.57;3.30;;;;;;;8.38;100.00;101131.78;5191813;28;20088;-76
2021/11/12 08:45:19;;;;;;;3.70;2.20;;;;;;;8.30;100.00;101115.47;5188943;28;20079;-76
2021/11/12 08:48:00;;;;;;;2.90;1.80;;;;;;;8.24;100.00;101115.53;5190320;28;20505;-77
2021/11/12 08:50:30;;;;;;;2.20;1.30;;;;;;;8.26;100.00;101111.19;5191942;28;20084;-77
2021/11/12 08:53:09;;;;;;;3.03;1.60;;;;;;;8.21;100.00;101115.59;5194364;28;20033;-77
2021/11/12 08:55:42;;;;;;;2.45;1.40;;;;;;;8.29;100.00;101123.28;5192373;28;20081;-77
2021/11/12 08:58:13;;;;;;;3.00;1.88;;;;;;;8.18;100.00;101115.66;5188843;28;20606;-77
2021/11/12 09:00:43;;;;;;;4.30;2.40;;;;;;;8.14;100.00;101107.88;5191875;28;20112;-77
2021/11/12 09:03:14;;;;;;;5.50;2.90;;;;;;;8.12;100.00;101092.31;5193858;28;20423;-77
2021/11/12 09:05:44;;;;;;;7.00;4.32;;;;;;;8.15;100.00;101092.25;5191820;28;20021;-76
2021/11/12 09:08:15;;;;;;;6.72;4.30;;;;;;;8.21;100.00;101101.75;5192670;28;20487;-77
2021/11/12 09:10:45;;;;;;;8.40;4.70;;;;;;;8.20;100.00;101092.22;5191934;28;20104;-77
2021/11/12 09:15:51;;;;;;;8.27;5.20;;;;;;;8.16;100.00;101088.75;5193365;28;20038;-77
2021/11/12 09:18:23;;;;;;;9.48;5.20;;;;;;;8.09;100.00;101087.16;5197217;28;20043;-77
2021/11/12 09:20:54;;;;;;;8.30;5.00;;;;;;;8.01;100.00;101091.63;5189839;28;20365;-76
2021/11/12 09:23:24;;;;;;;7.10;4.03;;;;;;;7.82;100.00;101097.16;5194609;28;20084;-77
2021/11/12 09:25:54;;;;;;;8.95;4.57;;;;;;;7.87;100.00;101092.75;5191784;28;20025;-77
2021/11/12 09:28:25;;;;;;;8.95;4.93;;;;;;;7.92;100.00;101088.31;5192771;28;20041;-77
2021/11/12 09:30:55;;;;;;;7.53;4.55;;;;;;;7.94;100.00;101083.94;5193386;28;20026;-77
2021/11/12 09:33:25;;;;;;;8.77;4.57;;;;;;;7.86;100.00;101089.28;5194896;28;20237;-77
2021/11/12 09:35:57;;;;;;;9.20;5.03;;;;;;;7.81;100.00;101078.09;5187493;28;20018;-76
2021/11/12 09:38:27;;;;;;;13.15;6.30;;;;;;;7.73;100.00;101079.09;5199754;28;20059;-78
2021/11/12 09:40:58;;;;;;;13.65;5.85;;;;;;;7.71;100.00;101060.91;5196009;28;20060;-78
2021/11/12 09:43:28;;;;;;;13.10;6.38;;;;;;;7.72;100.00;101056.56;5192032;28;20033;-78
2021/11/12 09:45:59;;;;;;;12.50;6.30;;;;;;;7.58;100.00;101051.59;5190299;28;20030;-78
2021/11/12 09:48:29;;;;;;;12.00;6.05;;;;;;;7.71;100.00;101049.66;5191220;28;20040;-77
2021/11/12 09:51:00;;;;;;;12.38;6.43;;;;;;;7.77;100.00;101053.03;5189407;28;20041;-78
2021/11/12 09:53:31;;;;;;;11.93;5.85;;;;;;;7.72;100.00;101052.22;5195216;28;20047;-77
2021/11/12 09:56:02;;;;;;;12.10;6.20;;;;;;;7.81;100.00;101049.47;5195761;28;20052;-78
2021/11/12 09:58:33;;;;;;;12.13;6.38;;;;;;;7.82;100.00;101047.72;5196768;28;20038;-78
2021/11/12 10:01:06;;;;;;;7.93;3.92;;;;;;;7.72;100.00;101033.16;5200543;28;20496;-79
2021/11/12 10:03:44;;;;;;;8.18;3.83;;;;;;;7.69;100.00;101033.22;5200793;28;20083;-77
2021/11/12 10:06:18;;;;;;;6.70;3.40;;;;;;;7.62;100.00;101035.06;5200818;28;20057;-78
2021/11/12 10:08:49;;;;;;;5.75;2.92;;;;;;;7.49;100.00;101027.50;5198877;28;20029;-78
2021/11/12 10:11:32;;;;;;;6.90;3.95;;;;;;;7.37;100.00;101023.31;5200632;28;20040;-78
2021/11/12 10:14:11;;;;;;;9.18;4.35;;;;;;;7.27;100.00;101025.25;5188354;28;20025;-79
2021/11/12 10:16:53;;;;;;;10.35;5.50;;;;;;;7.34;100.00;101027.72;5201727;28;20053;-78
2021/11/12 10:19:25;;;;;;;11.43;4.88;;;;;;;7.19;100.00;101027.06;5197485;28;20037;-78
2021/11/12 10:22:03;;;;;;;10.75;4.82;;;;;;;7.13;100.00;101027.19;5193493;28;20021;-78
2021/11/12 10:24:36;;;;;;;9.68;4.85;;;;;;;6.98;100.00;101023.06;5200648;28;20034;-77
2021/11/12 10:27:10;;;;;;;10.38;5.05;;;;;;;7.00;100.00;101018.69;5197882;28;20085;-77
2021/11/12 10:29:46;;;;;;;13.68;6.07;;;;;;;6.94;100.00;101021.38;5198369;28;20044;-78
2021/11/12 10:32:19;;;;;;;11.23;5.60;;;;;;;6.90;100.00;101017.09;5200109;28;20040;-78
2021/11/12 10:34:52;;;;;;;9.90;5.80;;;;;;;6.99;100.00;101014.38;5198330;28;20021;-77
2021/11/12 10:37:28;;;;;;;11.40;5.78;;;;;;;7.05;100.00;101006.50;5199264;28;20036;-77
2021/11/12 10:40:04;;;;;;;12.38;6.32;;;;;;;7.03;100.00;101008.25;5191746;28;20123;-76
2021/11/12 10:42:38;;;;;;;12.82;6.60;;;;;;;6.86;100.00;101010.25;5193895;28;20160;-77
2021/11/12 10:45:11;;;;;;;15.00;7.10;;;;;;;6.80;100.00;101005.09;5192021;28;20029;-77
2021/11/12 10:47:52;;;;;;;14.07;7.35;;;;;;;7.04;100.00;100999.59;5194998;28;20454;-79
2021/11/12 10:50:25;;;;;;;16.60;7.82;;;;;;;7.35;100.00;100998.25;5196516;28;20017;-77
2021/11/12 10:53:05;;;;;;;18.38;8.60;;;;;;;7.44;100.00;100992.88;5190973;28;20052;-77
2021/11/12 10:55:36;;;;;;;16.95;8.40;;;;;;;7.46;100.00;100984.19;5198413;28;20033;-78
2021/11/12 10:58:11;;;;;;;16.50;8.75;;;;;;;7.69;100.00;100994.22;5195122;28;20025;-78
2021/11/12 11:00:46;;;;;;;17.48;9.02;;;;;;;7.99;100.00;100989.31;5197444;28;20360;-78
2021/11/12 11:03:22;;;;;;;14.57;7.50;;;;;;;7.83;100.00;100976.59;5197628;28;20033;-78
2021/11/12 11:06:03;;;;;;;16.85;7.75;;;;;;;7.67;100.00;100983.81;5196654;28;20021;-79
2021/11/12 11:08:34;;;;;;;15.98;7.68;;;;;;;7.89;100.00;100990.34;5190990;28;20288;-78
2021/11/12 11:11:07;;;;;;;14.75;7.55;;;;;;;7.98;100.00;100986.72;5197864;28;20425;-79
2021/11/12 11:13:41;;;;;;;14.82;7.53;;;;;;;8.21;100.00;100987.19;5190621;28;20057;-77
2021/11/12 11:16:20;;;;;;;16.20;8.00;;;;;;;8.21;100.00;100990.63;5188606;28;20093;-77
2021/11/12 11:18:54;;;;;;;17.15;8.48;;;;;;;8.32;100.00;100983.47;5194423;28;20072;-77
2021/11/12 11:21:25;;;;;;;15.52;8.60;;;;;;;8.53;100.00;100988.25;5202263;28;20032;-76
2021/11/12 11:24:05;;;;;;;16.25;8.02;;;;;;;8.33;100.00;100969.56;5190654;28;20476;-76
2021/11/12 11:26:48;;;;;;;15.93;7.80;;;;;;;8.21;100.00;100969.81;5198142;28;20030;-76
2021/11/12 11:29:22;;;;;;;14.73;8.30;;;;;;;8.18;100.00;100975.09;5198056;28;20033;-76
2021/11/12 11:31:55;;;;;;;15.73;7.75;;;;;;;8.19;100.00;100971.59;5198350;28;20029;-77
2021/11/12 11:34:26;;;;;;;17.15;7.53;;;;;;;8.12;100.00;100969.97;5197360;28;20030;-76
2021/11/12 11:37:00;;;;;;;16.63;8.13;;;;;;;8.17;100.00;100967.25;5200347;28;20052;-76
2021/11/12 11:39:30;;;;;;;12.68;7.28;;;;;;;8.31;100.00;100965.28;5191914;28;20037;-76
2021/11/12 11:42:03;;;;;;;13.90;7.97;;;;;;;8.20;100.00;100962.88;5191470;28;20479;-76
2021/11/12 11:44:34;;;;;;;15.07;8.07;;;;;;;8.34;100.00;100966.06;5186661;28;20029;-78
2021/11/12 11:47:04;;;;;;;12.38;7.70;;;;;;;8.52;100.00;100964.84;5183175;28;20036;-78
2021/11/12 11:49:37;;;;;;;13.00;7.70;;;;;;;8.37;100.00;100963.41;5186551;28;20045;-78
2021/11/12 11:52:12;;;;;;;16.52;8.07;;;;;;;8.47;100.00;100962.34;5183539;28;20033;-78
2021/11/12 11:54:47;;;;;;;14.15;7.88;;;;;;;8.53;100.00;100957.00;5193764;28;20251;-77
2021/11/12 11:57:20;;;;;;;14.60;7.57;;;;;;;8.52;100.00;100950.06;5192131;28;20179;-78
2021/11/12 12:00:21;;;;;;;14.75;7.57;;;;;;;8.04;100.00;100945.81;5194881;28;20276;-77
2021/11/12 12:03:21;;;;;;;15.32;7.40;;;;;;;7.92;100.00;100945.19;5199545;28;20380;-77
2021/11/12 12:06:05;;;;;;;16.40;7.88;;;;;;;7.76;100.00;100933.38;5200524;28;20564;-76
2021/11/12 12:09:00;;;;;;;13.90;8.05;;;;;;;7.72;100.00;100939.50;5196023;28;20068;-76
2021/11/12 12:11:35;;;;;;;15.10;7.90;;;;;;;7.63;100.00;100937.94;5195094;28;20108;-77
2021/11/12 12:14:31;;;;;;;11.77;7.18;;;;;;;7.74;100.00;100929.94;5195822;28;20467;-77
2021/11/12 12:17:10;;;;;;;17.10;8.50;;;;;;;7.61;100.00;100924.09;5193291;28;20030;-77
2021/11/12 12:19:53;;;;;;;13.85;7.78;;;;;;;7.66;100.00;100922.28;5196282;28;20044;-76
2021/11/12 13:21:44;;;;;;;21.17;11.70;;;;;;;7.76;100.00;100922.97;5185045;28;20022;-80
2021/11/12 13:24:31;;;;;;;22.15;12.30;;;;;;;7.82;100.00;100923.69;5193624;28;20034;-79
2021/11/12 13:30:34;;;;;;;17.90;10.20;;;;;;;7.69;100.00;100896.19;5201172;28;20041;-78
2021/11/12 13:33:32;;;;;;;22.77;11.43;;;;;;;7.67;100.00;100871.97;5207404;28;20057;-78
2021/11/12 13:36:23;;;;;;;21.58;12.10;;;;;;;7.68;100.00;100885.84;5195373;28;20058;-77
2021/11/12 13:39:00;;;;;;;21.55;11.73;;;;;;;7.64;100.00;100876.34;5202783;28;20029;-78
2021/11/12 13:41:35;;;;;;;19.95;11.75;;;;;;;7.54;100.00;100865.28;5204040;28;20037;-78
2021/11/12 13:44:07;;;;;;;21.92;11.25;;;;;;;7.56;100.00;100868.69;5203930;28;20037;-79
2021/11/12 13:46:44;;;;;;;26.75;12.73;;;;;;;7.51;100.00;100851.50;5209801;28;20029;-78
2021/11/12 13:49:34;;;;;;;23.55;13.23;;;;;;;7.52;100.00;100835.84;5209715;28;20029;-78
2021/11/12 13:52:11;;;;;;;23.20;12.60;;;;;;;7.56;100.00;100837.50;5206877;28;20029;-79
2021/11/12 13:55:01;;;;;;;25.75;13.85;;;;;;;7.57;100.00;100844.44;5209138;28;20026;-79
2021/11/12 13:57:31;;;;;;;23.33;12.77;;;;;;;7.50;100.00;100837.63;5201875;28;20065;-79
2021/11/12 14:00:10;;;;;;;24.17;12.90;;;;;;;7.32;100.00;100848.34;5199729;28;20030;-79
2021/11/12 14:02:53;;;;;;;21.85;12.95;;;;;;;7.30;100.00;100834.53;5201253;28;20121;-78
2021/11/12 14:05:24;;;;;;;25.15;12.98;;;;;;;7.36;100.00;100834.41;5201523;28;20033;-79
2021/11/12 14:08:08;;;;;;;25.45;13.95;;;;;;;7.37;100.00;100819.69;5202239;28;20029;-78
2021/11/12 14:10:44;;;;;;;28.88;13.95;;;;;;;7.37;100.00;100825.72;5200357;28;20021;-78
2021/11/12 14:13:17;;;;;;;27.00;13.50;;;;;;;7.35;100.00;100837.91;5197418;28;20025;-78
2021/11/12 14:16:01;;;;;;;28.90;14.10;;;;;;;7.28;100.00;100830.25;5198754;28;20025;-78
2021/11/12 14:18:50;;;;;;;28.48;13.98;;;;;;;7.27;100.00;100822.50;5196514;28;20691;-79
2021/11/12 14:29:57;;;;;;;27.95;15.20;;;;;;;7.03;100.00;100791.72;5177718;28;20033;-80
2021/11/12 14:46:50;;;;;;;40.03;19.05;;;;;;;6.61;100.00;100769.94;5143039;28;20102;-81
2021/11/12 14:54:40;;;;;;;52.38;23.75;;;;;;;6.19;100.00;100757.66;5147663;28;20035;-81
2021/11/12 15:00:04;;;;;;;67.55;26.02;;;;;;;5.91;100.00;100750.31;5154359;28;20033;-81
2021/11/12 15:02:36;;;;;;;69.50;26.83;;;;;;;5.91;100.00;100752.91;5146859;28;20113;-81
2021/11/12 15:05:08;;;;;;;76.55;28.88;;;;;;;5.91;100.00;100745.13;5148897;28;20137;-81
2021/11/12 15:10:23;;;;;;;84.50;31.00;;;;;;;5.80;100.00;100753.03;5141877;28;20099;-81
2021/11/12 15:12:54;;;;;;;82.75;32.05;;;;;;;5.52;100.00;100755.94;5153415;28;20026;-81
2021/11/12 15:15:24;;;;;;;86.20;29.73;;;;;;;5.48;100.00;100757.75;5149201;28;20020;-81
2021/11/12 15:17:55;;;;;;;84.80;30.02;;;;;;;5.49;100.00;100756.88;5140296;28;20033;-82
2021/11/12 15:20:27;;;;;;;77.90;29.17;;;;;;;5.43;100.00;100745.72;5139359;28;20099;-81
2021/11/12 15:23:23;;;;;;;74.82;28.42;;;;;;;5.41;100.00;100742.28;5151596;28;20018;-81
2021/11/12 15:28:47;;;;;;;86.82;29.95;;;;;;;5.32;100.00;100736.38;5153574;28;20042;-81
2021/11/12 15:31:33;;;;;;;89.55;29.98;;;;;;;5.34;100.00;100739.78;5152715;28;20139;-81
2021/11/12 15:34:06;;;;;;;90.30;30.85;;;;;;;5.36;100.00;100756.19;5168534;28;20165;-81
2021/11/12 15:36:44;;;;;;;89.68;30.55;;;;;;;5.29;100.00;100763.16;5163629;28;20038;-82
2021/11/12 15:39:22;;;;;;;83.22;30.90;;;;;;;5.34;100.00;100760.53;5158809;28;20052;-82
2021/11/12 15:42:18;;;;;;;89.18;30.95;;;;;;;5.20;100.00;100746.84;5158945;28;20145;-81
2021/11/12 15:44:43;;;;;;;97.80;32.60;;;;;;;5.30;100.00;100754.50;5153886;28;20026;-81
2021/11/12 15:47:24;;;;;;;96.10;33.70;;;;;;;5.43;100.00;100759.50;5151186;28;20026;-81
2021/11/12 15:50:45;;;;;;;95.88;33.00;;;;;;;5.34;100.00;100745.81;5150909;28;20041;-80
2021/11/12 15:52:54;;;;;;;97.53;33.63;;;;;;;5.39;100.00;100738.88;5149034;28;20133;-81
2021/11/12 15:55:38;;;;;;;98.82;33.92;;;;;;;5.30;100.00;100738.97;5153555;28;20119;-81
2021/11/12 16:09:28;;;;;;;90.03;33.10;;;;;;;5.17;100.00;100718.41;5155803;28;20031;-80
2021/11/12 16:22:19;;;;;;;78.47;28.40;;;;;;;5.11;100.00;100706.38;5152958;28;20030;-80
2021/11/12 16:26:46;;;;;;;84.18;28.92;;;;;;;5.02;100.00;100716.84;5145300;28;20027;-80
2021/11/12 16:29:35;;;;;;;69.28;27.10;;;;;;;4.86;100.00;100704.94;5148758;28;21075;-80
2021/11/12 16:32:09;;;;;;;69.50;25.77;;;;;;;4.71;100.00;100712.88;5149848;28;20035;-80
2021/11/12 16:34:45;;;;;;;72.95;26.25;;;;;;;4.83;100.00;100702.38;5163966;28;20026;-80
2021/11/12 16:37:19;;;;;;;69.00;24.35;;;;;;;4.74;100.00;100706.78;5158846;28;20022;-79
2021/11/12 16:39:54;;;;;;;80.43;26.38;;;;;;;4.67;100.00;100711.16;5149550;28;20038;-80
2021/11/12 16:50:33;;;;;;;70.18;25.70;;;;;;;4.68;100.00;100709.44;5150520;28;20077;-80
2021/11/12 16:55:59;;;;;;;68.63;24.40;;;;;;;4.69;100.00;100717.22;5152306;28;20022;-79
2021/11/12 16:58:47;;;;;;;67.18;25.60;;;;;;;4.68;100.00;100714.63;5152023;28;20050;-81
2021/11/12 17:07:15;;;;;;;77.13;24.80;;;;;;;4.71;100.00;100714.59;5156761;28;20026;-81
2021/11/12 17:46:04;;;;;;;58.20;20.55;;;;;;;4.19;100.00;100657.31;5146058;28;20019;-81
2021/11/12 17:48:38;;;;;;;53.45;19.67;;;;;;;4.18;100.00;100657.31;5166045;28;20042;-81
2021/11/12 18:02:11;;;;;;;70.10;21.90;;;;;;;4.21;100.00;100652.97;5148678;28;20042;-79
2021/11/12 18:04:55;;;;;;;67.53;21.95;;;;;;;4.18;100.00;100654.72;5154673;28;20103;-80
2021/11/12 21:47:12;;;;;;;50.15;18.73;;;;;;;4.07;100.00;100530.72;5153904;28;20045;-81
2021/11/12 21:49:43;;;;;;;52.63;19.52;;;;;;;4.09;100.00;100535.88;5151377;28;20022;-81
2021/11/12 21:52:14;;;;;;;48.80;19.02;;;;;;;4.04;100.00;100527.28;5148813;28;20472;-81
2021/11/12 21:54:44;;;;;;;46.10;18.80;;;;;;;4.04;100.00;100524.69;5149190;28;20034;-81